sensor_id;sensor_type;location;lat;lon;timestamp;temperature;humidity
43225;DHT22;28834;48.720;9.208;2022-08-01T00:00:30;20.60;85.20
43225;DHT22;28834;48.720;9.208;2022-08-01T00:02:57;20.50;86.10
43225;DHT22;28834;48.720;9.208;2022-08-01T00:05:22;20.50;85.50
43225;DHT22;28834;48.720;9.208;2022-08-01T00:07:48;20.40;86.20
43225;DHT22;28834;48.720;9.208;2022-08-01T00:10:15;20.40;88.00
43225;DHT22;28834;48.720;9.208;2022-08-01T00:12:42;20.20;90.30
43225;DHT22;28834;48.720;9.208;2022-08-01T00:15:09;20.10;88.70
43225;DHT22;28834;48.720;9.208;2022-08-01T00:17:35;20.10;89.90
43225;DHT22;28834;48.720;9.208;2022-08-01T00:20:02;20.00;90.80
43225;DHT22;28834;48.720;9.208;2022-08-01T00:22:30;19.90;91.90
43225;DHT22;28834;48.720;9.208;2022-08-01T00:24:55;19.80;91.20
43225;DHT22;28834;48.720;9.208;2022-08-01T00:27:21;19.80;91.50
43225;DHT22;28834;48.720;9.208;2022-08-01T00:29:46;19.70;92.80
43225;DHT22;28834;48.720;9.208;2022-08-01T00:32:12;19.60;92.70
43225;DHT22;28834;48.720;9.208;2022-08-01T00:34:37;19.50;93.40
43225;DHT22;28834;48.720;9.208;2022-08-01T00:37:03;19.40;94.40
43225;DHT22;28834;48.720;9.208;2022-08-01T00:39:29;19.30;94.70
43225;DHT22;28834;48.720;9.208;2022-08-01T00:41:54;19.20;95.50
43225;DHT22;28834;48.720;9.208;2022-08-01T00:44:20;19.20;96.10
43225;DHT22;28834;48.720;9.208;2022-08-01T00:46:45;19.10;97.30
43225;DHT22;28834;48.720;9.208;2022-08-01T00:49:11;19.00;96.70
43225;DHT22;28834;48.720;9.208;2022-08-01T00:51:37;19.00;96.90
43225;DHT22;28834;48.720;9.208;2022-08-01T00:54:03;18.80;97.60
43225;DHT22;28834;48.720;9.208;2022-08-01T00:56:29;18.80;98.50
43225;DHT22;28834;48.720;9.208;2022-08-01T00:58:55;18.80;99.40
43225;DHT22;28834;48.720;9.208;2022-08-01T01:01:21;18.70;99.90
43225;DHT22;28834;48.720;9.208;2022-08-01T01:03:51;18.70;99.70
43225;DHT22;28834;48.720;9.208;2022-08-01T01:09:39;18.70;99.50
43225;DHT22;28834;48.720;9.208;2022-08-01T01:12:28;18.80;99.60
43225;DHT22;28834;48.720;9.208;2022-08-01T01:17:40;19.00;99.10
43225;DHT22;28834;48.720;9.208;2022-08-01T01:20:08;19.10;99.90
43225;DHT22;28834;48.720;9.208;2022-08-01T01:28:24;19.50;98.40
43225;DHT22;28834;48.720;9.208;2022-08-01T01:30:54;19.60;98.90
43225;DHT22;28834;48.720;9.208;2022-08-01T01:33:21;19.70;97.30
43225;DHT22;28834;48.720;9.208;2022-08-01T01:35:52;19.70;97.50
43225;DHT22;28834;48.720;9.208;2022-08-01T01:38:21;19.80;97.90
43225;DHT22;28834;48.720;9.208;2022-08-01T01:40:49;19.90;97.30
43225;DHT22;28834;48.720;9.208;2022-08-01T01:43:17;19.90;97.60
43225;DHT22;28834;48.720;9.208;2022-08-01T01:45:44;19.90;97.30
43225;DHT22;28834;48.720;9.208;2022-08-01T01:48:13;19.90;97.40
43225;DHT22;28834;48.720;9.208;2022-08-01T01:50:42;19.90;98.10
43225;DHT22;28834;48.720;9.208;2022-08-01T01:53:08;19.80;97.70
43225;DHT22;28834;48.720;9.208;2022-08-01T01:55:37;19.90;98.20
43225;DHT22;28834;48.720;9.208;2022-08-01T01:58:05;19.80;97.20
43225;DHT22;28834;48.720;9.208;2022-08-01T02:00:32;19.90;97.90
43225;DHT22;28834;48.720;9.208;2022-08-01T02:03:00;19.90;97.50
43225;DHT22;28834;48.720;9.208;2022-08-01T02:05:28;19.90;97.90
43225;DHT22;28834;48.720;9.208;2022-08-01T02:07:55;19.90;98.10
43225;DHT22;28834;48.720;9.208;2022-08-01T02:10:21;19.90;98.80
43225;DHT22;28834;48.720;9.208;2022-08-01T02:12:48;19.80;98.60
43225;DHT22;28834;48.720;9.208;2022-08-01T02:15:16;19.80;98.90
43225;DHT22;28834;48.720;9.208;2022-08-01T02:17:45;19.70;99.40
43225;DHT22;28834;48.720;9.208;2022-08-01T02:20:13;19.60;99.80
43225;DHT22;28834;48.720;9.208;2022-08-01T02:22:49;19.60;99.90
43225;DHT22;28834;48.720;9.208;2022-08-01T02:25:22;19.50;99.90
43225;DHT22;28834;48.720;9.208;2022-08-01T02:27:58;19.50;99.90
43225;DHT22;28834;48.720;9.208;2022-08-01T02:30:33;19.40;99.90
43225;DHT22;28834;48.720;9.208;2022-08-01T02:33:22;19.40;99.90
43225;DHT22;28834;48.720;9.208;2022-08-01T02:35:56;19.30;99.90
43225;DHT22;28834;48.720;9.208;2022-08-01T02:38:25;19.20;99.90
43225;DHT22;28834;48.720;9.208;2022-08-01T02:40:53;19.00;99.90
43225;DHT22;28834;48.720;9.208;2022-08-01T02:43:21;18.90;99.90
43225;DHT22;28834;48.720;9.208;2022-08-01T02:45:54;18.90;99.90
43225;DHT22;28834;48.720;9.208;2022-08-01T02:48:21;18.80;99.90
43225;DHT22;28834;48.720;9.208;2022-08-01T02:50:49;18.70;99.90
43225;DHT22;28834;48.720;9.208;2022-08-01T02:53:18;18.60;99.90
43225;DHT22;28834;48.720;9.208;2022-08-01T02:55:45;18.70;99.90
43225;DHT22;28834;48.720;9.208;2022-08-01T02:58:15;18.60;99.90
43225;DHT22;28834;48.720;9.208;2022-08-01T03:00:43;18.60;99.90
43225;DHT22;28834;48.720;9.208;2022-08-01T03:03:10;18.60;99.90
43225;DHT22;28834;48.720;9.208;2022-08-01T03:05:37;18.40;99.90
43225;DHT22;28834;48.720;9.208;2022-08-01T03:08:06;18.30;99.90
43225;DHT22;28834;48.720;9.208;2022-08-01T03:10:37;18.20;99.90
43225;DHT22;28834;48.720;9.208;2022-08-01T03:13:05;18.20;99.90
43225;DHT22;28834;48.720;9.208;2022-08-01T03:15:34;18.20;99.90
43225;DHT22;28834;48.720;9.208;2022-08-01T03:18:02;18.10;99.90
43225;DHT22;28834;48.720;9.208;2022-08-01T03:20:30;18.10;99.90
43225;DHT22;28834;48.720;9.208;2022-08-01T03:22:59;18.10;99.90
43225;DHT22;28834;48.720;9.208;2022-08-01T03:25:28;18.10;99.90
43225;DHT22;28834;48.720;9.208;2022-08-01T03:27:56;18.10;99.90
43225;DHT22;28834;48.720;9.208;2022-08-01T03:30:25;18.10;99.90
43225;DHT22;28834;48.720;9.208;2022-08-01T03:32:51;18.10;99.90
43225;DHT22;28834;48.720;9.208;2022-08-01T03:35:17;18.10;99.90
43225;DHT22;28834;48.720;9.208;2022-08-01T03:37:45;18.10;99.90
43225;DHT22;28834;48.720;9.208;2022-08-01T03:40:20;18.10;99.90
43225;DHT22;28834;48.720;9.208;2022-08-01T03:42:48;18.10;99.90
43225;DHT22;28834;48.720;9.208;2022-08-01T03:45:38;18.10;99.90
43225;DHT22;28834;48.720;9.208;2022-08-01T03:48:09;18.00;99.90
43225;DHT22;28834;48.720;9.208;2022-08-01T03:50:36;18.00;99.90
43225;DHT22;28834;48.720;9.208;2022-08-01T03:53:05;17.90;99.90
43225;DHT22;28834;48.720;9.208;2022-08-01T03:55:33;17.90;99.90
43225;DHT22;28834;48.720;9.208;2022-08-01T03:58:00;17.90;99.90
43225;DHT22;28834;48.720;9.208;2022-08-01T04:00:26;18.00;99.90
43225;DHT22;28834;48.720;9.208;2022-08-01T04:02:53;17.90;99.90
43225;DHT22;28834;48.720;9.208;2022-08-01T04:05:19;18.00;99.90
43225;DHT22;28834;48.720;9.208;2022-08-01T04:07:49;18.10;99.90
43225;DHT22;28834;48.720;9.208;2022-08-01T04:10:24;18.10;99.90
43225;DHT22;28834;48.720;9.208;2022-08-01T04:12:50;18.20;99.90
43225;DHT22;28834;48.720;9.208;2022-08-01T04:15:16;18.30;99.90
43225;DHT22;28834;48.720;9.208;2022-08-01T04:17:41;18.30;99.90
43225;DHT22;28834;48.720;9.208;2022-08-01T04:20:08;18.30;99.90
43225;DHT22;28834;48.720;9.208;2022-08-01T04:22:34;18.40;99.90
43225;DHT22;28834;48.720;9.208;2022-08-01T04:25:01;18.50;99.90
43225;DHT22;28834;48.720;9.208;2022-08-01T04:27:32;18.60;99.90
43225;DHT22;28834;48.720;9.208;2022-08-01T04:30:01;18.70;99.90
43225;DHT22;28834;48.720;9.208;2022-08-01T04:32:29;18.80;99.90
43225;DHT22;28834;48.720;9.208;2022-08-01T04:34:58;19.00;99.90
43225;DHT22;28834;48.720;9.208;2022-08-01T04:37:25;19.10;99.90
43225;DHT22;28834;48.720;9.208;2022-08-01T04:39:52;19.10;99.90
43225;DHT22;28834;48.720;9.208;2022-08-01T04:42:19;19.20;99.90
43225;DHT22;28834;48.720;9.208;2022-08-01T04:44:45;19.20;99.90
43225;DHT22;28834;48.720;9.208;2022-08-01T04:47:11;19.20;99.90
43225;DHT22;28834;48.720;9.208;2022-08-01T04:49:37;19.10;99.90
43225;DHT22;28834;48.720;9.208;2022-08-01T04:52:04;19.10;99.90
43225;DHT22;28834;48.720;9.208;2022-08-01T04:54:33;19.20;99.90
43225;DHT22;28834;48.720;9.208;2022-08-01T04:56:59;19.20;99.90
43225;DHT22;28834;48.720;9.208;2022-08-01T04:59:37;19.10;99.90
43225;DHT22;28834;48.720;9.208;2022-08-01T05:02:07;19.00;99.90
43225;DHT22;28834;48.720;9.208;2022-08-01T05:04:33;19.00;99.90
43225;DHT22;28834;48.720;9.208;2022-08-01T05:06:59;19.00;99.90
43225;DHT22;28834;48.720;9.208;2022-08-01T05:09:25;19.00;99.90
43225;DHT22;28834;48.720;9.208;2022-08-01T05:11:51;18.90;99.90
43225;DHT22;28834;48.720;9.208;2022-08-01T05:14:16;19.00;99.90
43225;DHT22;28834;48.720;9.208;2022-08-01T05:16:42;18.90;99.90
43225;DHT22;28834;48.720;9.208;2022-08-01T05:19:08;18.90;99.90
43225;DHT22;28834;48.720;9.208;2022-08-01T05:21:34;18.90;99.90
43225;DHT22;28834;48.720;9.208;2022-08-01T05:24:00;18.90;99.90
43225;DHT22;28834;48.720;9.208;2022-08-01T05:26:25;19.00;99.90
43225;DHT22;28834;48.720;9.208;2022-08-01T05:28:51;19.10;99.90
43225;DHT22;28834;48.720;9.208;2022-08-01T05:31:16;19.20;99.90
43225;DHT22;28834;48.720;9.208;2022-08-01T05:33:42;19.30;99.90
43225;DHT22;28834;48.720;9.208;2022-08-01T05:36:07;19.30;99.90
43225;DHT22;28834;48.720;9.208;2022-08-01T05:38:33;19.50;99.90
43225;DHT22;28834;48.720;9.208;2022-08-01T05:40:58;19.50;99.90
43225;DHT22;28834;48.720;9.208;2022-08-01T05:43:24;19.50;99.90
43225;DHT22;28834;48.720;9.208;2022-08-01T05:45:49;19.50;99.90
43225;DHT22;28834;48.720;9.208;2022-08-01T05:48:15;19.50;99.90
43225;DHT22;28834;48.720;9.208;2022-08-01T05:50:40;19.50;99.90
43225;DHT22;28834;48.720;9.208;2022-08-01T05:53:06;19.50;99.90
43225;DHT22;28834;48.720;9.208;2022-08-01T05:55:32;19.50;99.90
43225;DHT22;28834;48.720;9.208;2022-08-01T05:57:57;19.60;99.90
43225;DHT22;28834;48.720;9.208;2022-08-01T06:00:23;19.60;99.90
43225;DHT22;28834;48.720;9.208;2022-08-01T06:02:48;19.70;99.90
43225;DHT22;28834;48.720;9.208;2022-08-01T06:05:14;19.70;99.90
43225;DHT22;28834;48.720;9.208;2022-08-01T06:07:39;19.80;99.90
43225;DHT22;28834;48.720;9.208;2022-08-01T06:10:06;19.90;99.90
43225;DHT22;28834;48.720;9.208;2022-08-01T06:12:33;20.00;99.90
43225;DHT22;28834;48.720;9.208;2022-08-01T06:14:58;20.10;99.90
43225;DHT22;28834;48.720;9.208;2022-08-01T06:17:24;20.10;99.90
43225;DHT22;28834;48.720;9.208;2022-08-01T06:19:50;20.30;99.90
43225;DHT22;28834;48.720;9.208;2022-08-01T06:22:15;20.40;99.90
43225;DHT22;28834;48.720;9.208;2022-08-01T06:24:41;20.50;99.90
43225;DHT22;28834;48.720;9.208;2022-08-01T06:27:06;20.60;99.90
43225;DHT22;28834;48.720;9.208;2022-08-01T06:29:32;20.80;99.90
43225;DHT22;28834;48.720;9.208;2022-08-01T06:31:58;20.90;99.90
43225;DHT22;28834;48.720;9.208;2022-08-01T06:34:24;21.10;99.90
43225;DHT22;28834;48.720;9.208;2022-08-01T06:36:49;21.20;99.90
43225;DHT22;28834;48.720;9.208;2022-08-01T06:39:15;21.20;99.90
43225;DHT22;28834;48.720;9.208;2022-08-01T06:41:40;21.40;99.90
43225;DHT22;28834;48.720;9.208;2022-08-01T06:44:12;21.50;99.90
43225;DHT22;28834;48.720;9.208;2022-08-01T06:46:38;21.60;99.90
43225;DHT22;28834;48.720;9.208;2022-08-01T06:49:03;21.80;99.90
43225;DHT22;28834;48.720;9.208;2022-08-01T06:51:29;21.90;99.90
43225;DHT22;28834;48.720;9.208;2022-08-01T06:53:54;22.00;99.90
43225;DHT22;28834;48.720;9.208;2022-08-01T06:56:20;22.00;99.90
43225;DHT22;28834;48.720;9.208;2022-08-01T06:58:46;22.10;99.90
43225;DHT22;28834;48.720;9.208;2022-08-01T07:01:12;22.10;99.90
43225;DHT22;28834;48.720;9.208;2022-08-01T07:03:37;22.20;99.90
43225;DHT22;28834;48.720;9.208;2022-08-01T07:06:03;22.30;99.90
43225;DHT22;28834;48.720;9.208;2022-08-01T07:08:29;22.40;99.90
43225;DHT22;28834;48.720;9.208;2022-08-01T07:10:55;22.40;99.90
43225;DHT22;28834;48.720;9.208;2022-08-01T07:13:25;22.50;99.90
43225;DHT22;28834;48.720;9.208;2022-08-01T07:15:51;22.50;99.90
43225;DHT22;28834;48.720;9.208;2022-08-01T07:18:18;22.70;99.90
43225;DHT22;28834;48.720;9.208;2022-08-01T07:20:43;22.90;99.90
43225;DHT22;28834;48.720;9.208;2022-08-01T07:23:11;23.00;99.90
43225;DHT22;28834;48.720;9.208;2022-08-01T07:25:37;23.20;99.90
43225;DHT22;28834;48.720;9.208;2022-08-01T07:28:03;23.50;99.40
43225;DHT22;28834;48.720;9.208;2022-08-01T07:30:28;23.70;98.90
43225;DHT22;28834;48.720;9.208;2022-08-01T07:32:54;23.50;98.20
43225;DHT22;28834;48.720;9.208;2022-08-01T07:35:19;23.30;99.20
43225;DHT22;28834;48.720;9.208;2022-08-01T07:37:45;23.50;98.60
43225;DHT22;28834;48.720;9.208;2022-08-01T07:40:11;23.60;98.60
43225;DHT22;28834;48.720;9.208;2022-08-01T07:42:37;23.60;98.60
43225;DHT22;28834;48.720;9.208;2022-08-01T07:45:03;23.50;98.40
43225;DHT22;28834;48.720;9.208;2022-08-01T07:47:29;23.50;98.10
43225;DHT22;28834;48.720;9.208;2022-08-01T07:50:01;23.50;98.30
43225;DHT22;28834;48.720;9.208;2022-08-01T07:52:27;23.40;99.10
43225;DHT22;28834;48.720;9.208;2022-08-01T07:54:53;23.40;99.50
43225;DHT22;28834;48.720;9.208;2022-08-01T07:57:19;23.30;99.60
43225;DHT22;28834;48.720;9.208;2022-08-01T07:59:44;23.30;99.60
43225;DHT22;28834;48.720;9.208;2022-08-01T08:02:10;23.30;99.30
43225;DHT22;28834;48.720;9.208;2022-08-01T08:04:35;23.40;99.00
43225;DHT22;28834;48.720;9.208;2022-08-01T08:07:01;23.30;99.10
43225;DHT22;28834;48.720;9.208;2022-08-01T08:09:27;23.30;99.90
43225;DHT22;28834;48.720;9.208;2022-08-01T08:11:52;23.10;99.90
43225;DHT22;28834;48.720;9.208;2022-08-01T08:14:18;23.20;99.90
43225;DHT22;28834;48.720;9.208;2022-08-01T08:16:44;23.20;99.90
43225;DHT22;28834;48.720;9.208;2022-08-01T08:19:10;23.30;99.90
43225;DHT22;28834;48.720;9.208;2022-08-01T08:21:36;23.60;99.00
43225;DHT22;28834;48.720;9.208;2022-08-01T08:24:02;23.80;97.70
43225;DHT22;28834;48.720;9.208;2022-08-01T08:26:47;23.90;97.80
43225;DHT22;28834;48.720;9.208;2022-08-01T08:29:13;24.40;96.80
43225;DHT22;28834;48.720;9.208;2022-08-01T08:31:39;24.90;96.40
43225;DHT22;28834;48.720;9.208;2022-08-01T08:34:05;25.00;94.80
43225;DHT22;28834;48.720;9.208;2022-08-01T08:36:30;25.00;94.60
43225;DHT22;28834;48.720;9.208;2022-08-01T08:38:56;24.90;95.50
43225;DHT22;28834;48.720;9.208;2022-08-01T08:41:24;24.90;95.20
43225;DHT22;28834;48.720;9.208;2022-08-01T08:43:50;24.60;95.30
43225;DHT22;28834;48.720;9.208;2022-08-01T08:46:16;24.70;93.90
43225;DHT22;28834;48.720;9.208;2022-08-01T08:48:42;24.80;94.30
43225;DHT22;28834;48.720;9.208;2022-08-01T08:51:10;25.00;94.40
43225;DHT22;28834;48.720;9.208;2022-08-01T08:53:39;25.10;94.30
43225;DHT22;28834;48.720;9.208;2022-08-01T08:56:08;25.20;94.80
43225;DHT22;28834;48.720;9.208;2022-08-01T08:58:36;24.90;94.40
43225;DHT22;28834;48.720;9.208;2022-08-01T09:01:07;24.80;95.20
43225;DHT22;28834;48.720;9.208;2022-08-01T09:03:36;24.90;94.50
43225;DHT22;28834;48.720;9.208;2022-08-01T09:06:02;25.00;94.40
43225;DHT22;28834;48.720;9.208;2022-08-01T09:08:28;25.30;95.00
43225;DHT22;28834;48.720;9.208;2022-08-01T09:10:53;25.70;94.30
43225;DHT22;28834;48.720;9.208;2022-08-01T09:13:19;25.80;93.50
43225;DHT22;28834;48.720;9.208;2022-08-01T09:15:50;25.70;94.70
43225;DHT22;28834;48.720;9.208;2022-08-01T09:26:13;25.20;93.50
43225;DHT22;28834;48.720;9.208;2022-08-01T09:28:40;24.90;94.80
43225;DHT22;28834;48.720;9.208;2022-08-01T09:31:08;24.60;93.70
43225;DHT22;28834;48.720;9.208;2022-08-01T09:33:54;24.50;93.50
43225;DHT22;28834;48.720;9.208;2022-08-01T09:36:25;24.40;94.80
43225;DHT22;28834;48.720;9.208;2022-08-01T09:38:53;24.40;95.10
43225;DHT22;28834;48.720;9.208;2022-08-01T09:41:30;24.50;96.90
43225;DHT22;28834;48.720;9.208;2022-08-01T09:43:56;24.60;95.40
43225;DHT22;28834;48.720;9.208;2022-08-01T09:46:22;24.60;96.20
43225;DHT22;28834;48.720;9.208;2022-08-01T09:49:14;24.60;96.30
43225;DHT22;28834;48.720;9.208;2022-08-01T09:51:40;24.90;95.60
43225;DHT22;28834;48.720;9.208;2022-08-01T09:54:06;25.40;95.20
43225;DHT22;28834;48.720;9.208;2022-08-01T09:56:45;25.90;93.00
43225;DHT22;28834;48.720;9.208;2022-08-01T09:59:11;26.30;94.00
43225;DHT22;28834;48.720;9.208;2022-08-01T10:01:48;26.50;92.90
43225;DHT22;28834;48.720;9.208;2022-08-01T10:04:16;26.30;93.30
43225;DHT22;28834;48.720;9.208;2022-08-01T10:06:45;25.80;93.00
43225;DHT22;28834;48.720;9.208;2022-08-01T10:09:14;25.40;93.00
43225;DHT22;28834;48.720;9.208;2022-08-01T10:11:43;25.00;94.20
43225;DHT22;28834;48.720;9.208;2022-08-01T10:14:09;24.70;95.20
43225;DHT22;28834;48.720;9.208;2022-08-01T10:16:36;24.40;96.20
43225;DHT22;28834;48.720;9.208;2022-08-01T10:19:05;24.10;97.50
43225;DHT22;28834;48.720;9.208;2022-08-01T10:21:33;24.30;96.80
43225;DHT22;28834;48.720;9.208;2022-08-01T10:24:02;24.60;95.80
43225;DHT22;28834;48.720;9.208;2022-08-01T10:26:30;25.10;95.90
43225;DHT22;28834;48.720;9.208;2022-08-01T10:28:57;25.50;93.60
43225;DHT22;28834;48.720;9.208;2022-08-01T10:31:23;25.90;93.10
43225;DHT22;28834;48.720;9.208;2022-08-01T10:33:50;26.20;93.90
43225;DHT22;28834;48.720;9.208;2022-08-01T10:36:19;26.40;92.20
43225;DHT22;28834;48.720;9.208;2022-08-01T10:38:46;26.70;91.60
43225;DHT22;28834;48.720;9.208;2022-08-01T10:41:12;26.80;91.90
43225;DHT22;28834;48.720;9.208;2022-08-01T10:43:40;26.90;91.70
43225;DHT22;28834;48.720;9.208;2022-08-01T10:46:06;27.00;91.10
43225;DHT22;28834;48.720;9.208;2022-08-01T10:51:12;27.00;89.30
43225;DHT22;28834;48.720;9.208;2022-08-01T10:53:52;27.00;87.90
43225;DHT22;28834;48.720;9.208;2022-08-01T10:56:19;27.20;88.50
43225;DHT22;28834;48.720;9.208;2022-08-01T10:58:47;27.20;86.00
43225;DHT22;28834;48.720;9.208;2022-08-01T11:01:30;27.50;86.90
43225;DHT22;28834;48.720;9.208;2022-08-01T11:04:06;27.80;87.30
43225;DHT22;28834;48.720;9.208;2022-08-01T11:09:42;27.90;86.40
43225;DHT22;28834;48.720;9.208;2022-08-01T11:12:13;27.60;85.20
43225;DHT22;28834;48.720;9.208;2022-08-01T11:22:30;27.00;87.00
43225;DHT22;28834;48.720;9.208;2022-08-01T11:24:56;27.10;87.50
43225;DHT22;28834;48.720;9.208;2022-08-01T11:27:31;27.10;86.90
43225;DHT22;28834;48.720;9.208;2022-08-01T11:32:52;26.70;88.20
43225;DHT22;28834;48.720;9.208;2022-08-01T11:35:19;26.40;87.80
43225;DHT22;28834;48.720;9.208;2022-08-01T11:37:46;26.00;90.50
43225;DHT22;28834;48.720;9.208;2022-08-01T11:40:25;25.70;89.20
43225;DHT22;28834;48.720;9.208;2022-08-01T11:48:24;24.80;94.10
43225;DHT22;28834;48.720;9.208;2022-08-01T11:50:51;24.70;94.60
43225;DHT22;28834;48.720;9.208;2022-08-01T11:53:17;24.60;94.40
43225;DHT22;28834;48.720;9.208;2022-08-01T11:55:50;24.50;94.80
43225;DHT22;28834;48.720;9.208;2022-08-01T11:58:25;24.40;94.70
43225;DHT22;28834;48.720;9.208;2022-08-01T12:00:57;24.30;94.00
43225;DHT22;28834;48.720;9.208;2022-08-01T12:03:25;24.30;93.40
43225;DHT22;28834;48.720;9.208;2022-08-01T12:05:53;24.30;93.60
43225;DHT22;28834;48.720;9.208;2022-08-01T12:08:27;24.30;95.00
43225;DHT22;28834;48.720;9.208;2022-08-01T12:10:53;24.40;96.70
43225;DHT22;28834;48.720;9.208;2022-08-01T12:13:19;24.50;95.20
43225;DHT22;28834;48.720;9.208;2022-08-01T12:15:45;24.50;97.50
43225;DHT22;28834;48.720;9.208;2022-08-01T12:18:11;24.60;96.20
43225;DHT22;28834;48.720;9.208;2022-08-01T12:20:40;24.70;95.80
43225;DHT22;28834;48.720;9.208;2022-08-01T12:23:11;24.80;94.10
43225;DHT22;28834;48.720;9.208;2022-08-01T12:25:37;24.80;93.70
43225;DHT22;28834;48.720;9.208;2022-08-01T12:28:09;24.80;94.00
43225;DHT22;28834;48.720;9.208;2022-08-01T12:30:36;24.90;93.20
43225;DHT22;28834;48.720;9.208;2022-08-01T12:33:09;24.90;94.20
43225;DHT22;28834;48.720;9.208;2022-08-01T12:35:36;24.90;94.00
43225;DHT22;28834;48.720;9.208;2022-08-01T12:38:05;24.90;95.90
43225;DHT22;28834;48.720;9.208;2022-08-01T12:40:33;24.80;96.70
43225;DHT22;28834;48.720;9.208;2022-08-01T12:43:03;24.70;97.30
43225;DHT22;28834;48.720;9.208;2022-08-01T12:45:42;24.60;96.90
43225;DHT22;28834;48.720;9.208;2022-08-01T12:48:09;24.60;93.50
43225;DHT22;28834;48.720;9.208;2022-08-01T12:50:38;24.80;92.80
43225;DHT22;28834;48.720;9.208;2022-08-01T12:53:04;25.20;93.70
43225;DHT22;28834;48.720;9.208;2022-08-01T12:55:30;25.70;92.10
43225;DHT22;28834;48.720;9.208;2022-08-01T12:58:07;26.20;92.20
43225;DHT22;28834;48.720;9.208;2022-08-01T13:00:33;26.80;94.40
43225;DHT22;28834;48.720;9.208;2022-08-01T13:03:06;27.30;92.10
43225;DHT22;28834;48.720;9.208;2022-08-01T13:08:11;27.40;89.70
43225;DHT22;28834;48.720;9.208;2022-08-01T13:10:37;27.30;90.20
43225;DHT22;28834;48.720;9.208;2022-08-01T13:13:03;27.40;88.50
43225;DHT22;28834;48.720;9.208;2022-08-01T13:15:34;27.40;90.90
43225;DHT22;28834;48.720;9.208;2022-08-01T13:18:47;27.40;89.10
43225;DHT22;28834;48.720;9.208;2022-08-01T13:20:47;27.70;87.90
43225;DHT22;28834;48.720;9.208;2022-08-01T13:23:18;28.00;83.70
43225;DHT22;28834;48.720;9.208;2022-08-01T13:25:55;27.80;84.30
43225;DHT22;28834;48.720;9.208;2022-08-01T13:28:25;27.60;83.30
43225;DHT22;28834;48.720;9.208;2022-08-01T13:30:58;27.20;84.20
43225;DHT22;28834;48.720;9.208;2022-08-01T13:33:26;26.80;86.40
43225;DHT22;28834;48.720;9.208;2022-08-01T13:35:53;26.40;87.50
43225;DHT22;28834;48.720;9.208;2022-08-01T13:38:20;26.10;88.20
43225;DHT22;28834;48.720;9.208;2022-08-01T13:41:05;26.00;88.60
43225;DHT22;28834;48.720;9.208;2022-08-01T13:43:31;25.70;90.30
43225;DHT22;28834;48.720;9.208;2022-08-01T13:45:56;25.60;90.60
43225;DHT22;28834;48.720;9.208;2022-08-01T13:48:22;25.70;91.50
43225;DHT22;28834;48.720;9.208;2022-08-01T13:50:48;26.00;91.30
43225;DHT22;28834;48.720;9.208;2022-08-01T13:53:13;26.10;92.40
43225;DHT22;28834;48.720;9.208;2022-08-01T13:55:39;26.30;90.70
43225;DHT22;28834;48.720;9.208;2022-08-01T13:58:05;26.70;87.00
43225;DHT22;28834;48.720;9.208;2022-08-01T14:00:30;26.80;88.60
43225;DHT22;28834;48.720;9.208;2022-08-01T14:02:56;26.90;89.30
43225;DHT22;28834;48.720;9.208;2022-08-01T14:05:21;26.70;89.10
43225;DHT22;28834;48.720;9.208;2022-08-01T14:07:47;26.70;88.80
43225;DHT22;28834;48.720;9.208;2022-08-01T14:10:12;26.50;88.00
43225;DHT22;28834;48.720;9.208;2022-08-01T14:12:38;26.30;87.30
43225;DHT22;28834;48.720;9.208;2022-08-01T14:15:04;26.20;91.00
43225;DHT22;28834;48.720;9.208;2022-08-01T14:17:29;26.60;90.00
43225;DHT22;28834;48.720;9.208;2022-08-01T14:19:55;26.70;87.00
43225;DHT22;28834;48.720;9.208;2022-08-01T14:22:21;26.60;86.90
43225;DHT22;28834;48.720;9.208;2022-08-01T14:24:47;26.50;86.60
43225;DHT22;28834;48.720;9.208;2022-08-01T14:27:14;26.40;86.60
43225;DHT22;28834;48.720;9.208;2022-08-01T14:29:39;26.60;88.10
43225;DHT22;28834;48.720;9.208;2022-08-01T14:32:05;26.70;87.30
43225;DHT22;28834;48.720;9.208;2022-08-01T14:34:31;26.50;85.00
43225;DHT22;28834;48.720;9.208;2022-08-01T14:36:56;26.40;88.10
43225;DHT22;28834;48.720;9.208;2022-08-01T14:39:22;26.30;88.00
43225;DHT22;28834;48.720;9.208;2022-08-01T14:41:47;26.20;88.40
43225;DHT22;28834;48.720;9.208;2022-08-01T14:44:13;26.20;85.50
43225;DHT22;28834;48.720;9.208;2022-08-01T14:46:38;26.10;87.10
43225;DHT22;28834;48.720;9.208;2022-08-01T14:49:04;26.00;86.70
43225;DHT22;28834;48.720;9.208;2022-08-01T14:51:30;26.00;87.90
43225;DHT22;28834;48.720;9.208;2022-08-01T14:53:58;26.00;89.00
43225;DHT22;28834;48.720;9.208;2022-08-01T14:56:24;25.90;89.80
43225;DHT22;28834;48.720;9.208;2022-08-01T14:58:49;26.00;90.70
43225;DHT22;28834;48.720;9.208;2022-08-01T15:01:15;26.40;89.70
43225;DHT22;28834;48.720;9.208;2022-08-01T15:03:41;26.90;86.70
43225;DHT22;28834;48.720;9.208;2022-08-01T15:06:07;27.10;87.40
43225;DHT22;28834;48.720;9.208;2022-08-01T15:08:34;26.90;87.90
43225;DHT22;28834;48.720;9.208;2022-08-01T15:11:00;26.90;87.50
43225;DHT22;28834;48.720;9.208;2022-08-01T15:13:26;26.90;86.40
43225;DHT22;28834;48.720;9.208;2022-08-01T15:15:52;27.00;84.60
43225;DHT22;28834;48.720;9.208;2022-08-01T15:18:17;27.00;87.00
43225;DHT22;28834;48.720;9.208;2022-08-01T15:20:43;26.90;86.00
43225;DHT22;28834;48.720;9.208;2022-08-01T15:23:09;26.80;83.40
43225;DHT22;28834;48.720;9.208;2022-08-01T15:25:34;26.60;86.10
43225;DHT22;28834;48.720;9.208;2022-08-01T15:28:00;26.50;85.50
43225;DHT22;28834;48.720;9.208;2022-08-01T15:30:25;26.30;85.40
43225;DHT22;28834;48.720;9.208;2022-08-01T15:32:51;26.10;85.80
43225;DHT22;28834;48.720;9.208;2022-08-01T15:35:16;25.90;84.20
43225;DHT22;28834;48.720;9.208;2022-08-01T15:37:42;25.90;85.40
43225;DHT22;28834;48.720;9.208;2022-08-01T15:40:09;25.80;85.40
43225;DHT22;28834;48.720;9.208;2022-08-01T15:42:34;25.90;86.00
43225;DHT22;28834;48.720;9.208;2022-08-01T15:45:00;26.00;85.30
43225;DHT22;28834;48.720;9.208;2022-08-01T15:47:26;26.20;83.40
43225;DHT22;28834;48.720;9.208;2022-08-01T15:49:51;26.30;88.00
43225;DHT22;28834;48.720;9.208;2022-08-01T15:52:17;26.30;88.50
43225;DHT22;28834;48.720;9.208;2022-08-01T15:54:43;26.30;85.90
43225;DHT22;28834;48.720;9.208;2022-08-01T15:57:08;26.30;84.10
43225;DHT22;28834;48.720;9.208;2022-08-01T15:59:34;26.30;86.70
43225;DHT22;28834;48.720;9.208;2022-08-01T16:02:00;26.20;82.40
43225;DHT22;28834;48.720;9.208;2022-08-01T16:04:25;26.10;85.60
43225;DHT22;28834;48.720;9.208;2022-08-01T16:06:51;26.00;83.60
43225;DHT22;28834;48.720;9.208;2022-08-01T16:09:16;26.00;84.60
43225;DHT22;28834;48.720;9.208;2022-08-01T16:11:43;25.90;82.30
43225;DHT22;28834;48.720;9.208;2022-08-01T16:14:09;25.90;82.80
43225;DHT22;28834;48.720;9.208;2022-08-01T16:16:34;25.80;85.70